sensor_id;sensor_type;location;lat;lon;timestamp;P1;durP1;ratioP1;P2;durP2;ratioP2
19095;SDS011;9680;52.520;13.332;2022-12-18T00:02:26;32.97;;;8.13;;
19095;SDS011;9680;52.520;13.332;2022-12-18T00:04:53;32.57;;;9.37;;
19095;SDS011;9680;52.520;13.332;2022-12-18T00:07:20;37.60;;;10.20;;
19095;SDS011;9680;52.520;13.332;2022-12-18T00:09:47;38.23;;;10.27;;
19095;SDS011;9680;52.520;13.332;2022-12-18T00:12:14;32.00;;;8.50;;
19095;SDS011;9680;52.520;13.332;2022-12-18T00:14:45;36.77;;;9.93;;
19095;SDS011;9680;52.520;13.332;2022-12-18T00:17:12;30.00;;;8.27;;
19095;SDS011;9680;52.520;13.332;2022-12-18T00:19:38;29.40;;;8.50;;
19095;SDS011;9680;52.520;13.332;2022-12-18T00:22:05;32.20;;;8.03;;
19095;SDS011;9680;52.520;13.332;2022-12-18T00:24:32;33.17;;;8.30;;
19095;SDS011;9680;52.520;13.332;2022-12-18T00:26:59;24.10;;;7.67;;
19095;SDS011;9680;52.520;13.332;2022-12-18T00:29:25;33.43;;;8.30;;
19095;SDS011;9680;52.520;13.332;2022-12-18T00:31:54;36.50;;;9.67;;
19095;SDS011;9680;52.520;13.332;2022-12-18T00:34:20;37.17;;;8.87;;
19095;SDS011;9680;52.520;13.332;2022-12-18T00:36:47;40.20;;;9.17;;
19095;SDS011;9680;52.520;13.332;2022-12-18T00:39:14;29.83;;;9.13;;
19095;SDS011;9680;52.520;13.332;2022-12-18T00:41:43;32.47;;;8.20;;
19095;SDS011;9680;52.520;13.332;2022-12-18T00:44:27;32.40;;;8.70;;
19095;SDS011;9680;52.520;13.332;2022-12-18T00:46:55;32.40;;;8.97;;
19095;SDS011;9680;52.520;13.332;2022-12-18T00:49:22;33.17;;;8.80;;
19095;SDS011;9680;52.520;13.332;2022-12-18T00:51:50;34.03;;;8.83;;
19095;SDS011;9680;52.520;13.332;2022-12-18T00:54:17;37.47;;;9.33;;
19095;SDS011;9680;52.520;13.332;2022-12-18T00:56:44;33.57;;;8.97;;
19095;SDS011;9680;52.520;13.332;2022-12-18T00:59:11;34.13;;;8.93;;
19095;SDS011;9680;52.520;13.332;2022-12-18T01:01:38;38.33;;;8.50;;
19095;SDS011;9680;52.520;13.332;2022-12-18T01:04:06;36.43;;;9.53;;
19095;SDS011;9680;52.520;13.332;2022-12-18T01:06:34;34.53;;;9.20;;
19095;SDS011;9680;52.520;13.332;2022-12-18T01:09:01;33.83;;;9.10;;
19095;SDS011;9680;52.520;13.332;2022-12-18T01:11:29;37.27;;;9.77;;
19095;SDS011;9680;52.520;13.332;2022-12-18T01:13:59;36.70;;;10.10;;
19095;SDS011;9680;52.520;13.332;2022-12-18T01:16:26;34.40;;;9.70;;
19095;SDS011;9680;52.520;13.332;2022-12-18T01:18:53;34.90;;;8.93;;
19095;SDS011;9680;52.520;13.332;2022-12-18T01:21:22;33.43;;;9.13;;
19095;SDS011;9680;52.520;13.332;2022-12-18T01:23:51;31.77;;;8.90;;
19095;SDS011;9680;52.520;13.332;2022-12-18T01:26:18;37.37;;;9.13;;
19095;SDS011;9680;52.520;13.332;2022-12-18T01:28:45;32.30;;;8.83;;
19095;SDS011;9680;52.520;13.332;2022-12-18T01:31:12;36.47;;;9.33;;
19095;SDS011;9680;52.520;13.332;2022-12-18T01:33:42;36.03;;;9.77;;
19095;SDS011;9680;52.520;13.332;2022-12-18T01:36:14;37.93;;;9.30;;
19095;SDS011;9680;52.520;13.332;2022-12-18T01:38:43;42.13;;;9.90;;
19095;SDS011;9680;52.520;13.332;2022-12-18T01:41:10;27.60;;;8.17;;
19095;SDS011;9680;52.520;13.332;2022-12-18T01:43:48;34.17;;;8.53;;
19095;SDS011;9680;52.520;13.332;2022-12-18T01:46:18;40.10;;;9.93;;
19095;SDS011;9680;52.520;13.332;2022-12-18T01:48:47;40.60;;;9.23;;
19095;SDS011;9680;52.520;13.332;2022-12-18T01:51:16;35.60;;;9.90;;
19095;SDS011;9680;52.520;13.332;2022-12-18T01:53:44;32.80;;;9.63;;
19095;SDS011;9680;52.520;13.332;2022-12-18T01:56:14;40.60;;;9.83;;
19095;SDS011;9680;52.520;13.332;2022-12-18T01:58:44;41.97;;;10.23;;
19095;SDS011;9680;52.520;13.332;2022-12-18T02:01:21;34.27;;;9.70;;
19095;SDS011;9680;52.520;13.332;2022-12-18T02:03:49;38.47;;;9.10;;
19095;SDS011;9680;52.520;13.332;2022-12-18T02:06:18;32.80;;;9.60;;
19095;SDS011;9680;52.520;13.332;2022-12-18T02:08:57;36.90;;;9.27;;
19095;SDS011;9680;52.520;13.332;2022-12-18T02:11:32;44.13;;;10.77;;
19095;SDS011;9680;52.520;13.332;2022-12-18T02:14:11;36.50;;;10.30;;
19095;SDS011;9680;52.520;13.332;2022-12-18T02:16:45;39.27;;;10.63;;
19095;SDS011;9680;52.520;13.332;2022-12-18T02:19:26;40.23;;;10.13;;
19095;SDS011;9680;52.520;13.332;2022-12-18T02:22:07;40.03;;;10.27;;
19095;SDS011;9680;52.520;13.332;2022-12-18T02:24:51;34.83;;;10.37;;
19095;SDS011;9680;52.520;13.332;2022-12-18T02:27:27;39.93;;;10.57;;
19095;SDS011;9680;52.520;13.332;2022-12-18T02:29:59;39.53;;;10.20;;
19095;SDS011;9680;52.520;13.332;2022-12-18T02:32:28;38.13;;;9.83;;
19095;SDS011;9680;52.520;13.332;2022-12-18T02:34:58;39.60;;;10.27;;
19095;SDS011;9680;52.520;13.332;2022-12-18T02:37:29;40.17;;;8.67;;
19095;SDS011;9680;52.520;13.332;2022-12-18T02:40:00;36.80;;;9.83;;
19095;SDS011;9680;52.520;13.332;2022-12-18T02:42:32;34.80;;;8.73;;
19095;SDS011;9680;52.520;13.332;2022-12-18T02:45:00;32.83;;;8.83;;
19095;SDS011;9680;52.520;13.332;2022-12-18T02:47:28;33.80;;;8.37;;
19095;SDS011;9680;52.520;13.332;2022-12-18T02:49:58;34.47;;;9.00;;
19095;SDS011;9680;52.520;13.332;2022-12-18T02:52:34;37.70;;;9.93;;
19095;SDS011;9680;52.520;13.332;2022-12-18T02:55:17;35.93;;;9.40;;
19095;SDS011;9680;52.520;13.332;2022-12-18T02:58:02;37.63;;;9.43;;
19095;SDS011;9680;52.520;13.332;2022-12-18T03:00:37;39.53;;;9.90;;
19095;SDS011;9680;52.520;13.332;2022-12-18T03:03:09;40.43;;;10.53;;
19095;SDS011;9680;52.520;13.332;2022-12-18T03:05:42;48.17;;;11.20;;
19095;SDS011;9680;52.520;13.332;2022-12-18T03:08:14;36.77;;;10.17;;
19095;SDS011;9680;52.520;13.332;2022-12-18T03:10:48;40.80;;;9.87;;
19095;SDS011;9680;52.520;13.332;2022-12-18T03:13:20;35.17;;;9.87;;
19095;SDS011;9680;52.520;13.332;2022-12-18T03:15:54;37.93;;;9.70;;
19095;SDS011;9680;52.520;13.332;2022-12-18T03:18:30;34.27;;;8.70;;
19095;SDS011;9680;52.520;13.332;2022-12-18T03:21:02;32.07;;;9.23;;
19095;SDS011;9680;52.520;13.332;2022-12-18T03:23:36;32.80;;;9.23;;
19095;SDS011;9680;52.520;13.332;2022-12-18T03:26:08;32.67;;;8.97;;
19095;SDS011;9680;52.520;13.332;2022-12-18T03:28:42;40.67;;;9.40;;
19095;SDS011;9680;52.520;13.332;2022-12-18T03:31:13;39.63;;;9.63;;
19095;SDS011;9680;52.520;13.332;2022-12-18T03:33:41;39.00;;;9.73;;
19095;SDS011;9680;52.520;13.332;2022-12-18T03:36:13;38.00;;;9.57;;
19095;SDS011;9680;52.520;13.332;2022-12-18T03:38:40;31.50;;;8.40;;
19095;SDS011;9680;52.520;13.332;2022-12-18T03:41:10;35.23;;;9.27;;
19095;SDS011;9680;52.520;13.332;2022-12-18T03:44:23;32.27;;;7.80;;
19095;SDS011;9680;52.520;13.332;2022-12-18T03:46:57;36.67;;;9.43;;
19095;SDS011;9680;52.520;13.332;2022-12-18T03:49:34;37.80;;;8.87;;
19095;SDS011;9680;52.520;13.332;2022-12-18T03:52:06;37.97;;;9.83;;
19095;SDS011;9680;52.520;13.332;2022-12-18T03:54:39;33.73;;;9.17;;
19095;SDS011;9680;52.520;13.332;2022-12-18T03:57:13;40.40;;;10.17;;
19095;SDS011;9680;52.520;13.332;2022-12-18T03:59:45;34.20;;;9.53;;
19095;SDS011;9680;52.520;13.332;2022-12-18T04:02:18;35.23;;;9.70;;
19095;SDS011;9680;52.520;13.332;2022-12-18T04:04:46;42.00;;;10.10;;
19095;SDS011;9680;52.520;13.332;2022-12-18T04:07:16;37.60;;;9.77;;
19095;SDS011;9680;52.520;13.332;2022-12-18T04:09:44;38.20;;;10.03;;
19095;SDS011;9680;52.520;13.332;2022-12-18T04:12:13;39.63;;;10.40;;
19095;SDS011;9680;52.520;13.332;2022-12-18T04:14:40;40.77;;;11.37;;
19095;SDS011;9680;52.520;13.332;2022-12-18T04:17:10;54.00;;;12.60;;
19095;SDS011;9680;52.520;13.332;2022-12-18T04:19:36;48.13;;;11.93;;
19095;SDS011;9680;52.520;13.332;2022-12-18T04:22:03;49.77;;;11.50;;
19095;SDS011;9680;52.520;13.332;2022-12-18T04:24:36;57.33;;;12.07;;
19095;SDS011;9680;52.520;13.332;2022-12-18T04:27:10;48.90;;;11.13;;
19095;SDS011;9680;52.520;13.332;2022-12-18T04:29:42;42.23;;;11.77;;
19095;SDS011;9680;52.520;13.332;2022-12-18T04:32:10;40.77;;;10.47;;
19095;SDS011;9680;52.520;13.332;2022-12-18T04:34:39;52.80;;;11.93;;
19095;SDS011;9680;52.520;13.332;2022-12-18T04:37:06;52.50;;;12.20;;
19095;SDS011;9680;52.520;13.332;2022-12-18T04:39:33;50.13;;;11.67;;
19095;SDS011;9680;52.520;13.332;2022-12-18T04:42:06;54.80;;;13.13;;
19095;SDS011;9680;52.520;13.332;2022-12-18T04:44:33;51.27;;;13.93;;
19095;SDS011;9680;52.520;13.332;2022-12-18T04:47:00;61.70;;;13.57;;
19095;SDS011;9680;52.520;13.332;2022-12-18T04:49:28;51.50;;;12.20;;
19095;SDS011;9680;52.520;13.332;2022-12-18T04:51:54;55.17;;;13.43;;
19095;SDS011;9680;52.520;13.332;2022-12-18T04:54:21;60.67;;;16.37;;
19095;SDS011;9680;52.520;13.332;2022-12-18T04:56:49;57.47;;;13.77;;
19095;SDS011;9680;52.520;13.332;2022-12-18T04:59:15;62.07;;;13.97;;
19095;SDS011;9680;52.520;13.332;2022-12-18T05:01:42;58.13;;;13.10;;
19095;SDS011;9680;52.520;13.332;2022-12-18T05:04:09;59.63;;;13.80;;
19095;SDS011;9680;52.520;13.332;2022-12-18T05:06:38;51.50;;;13.83;;
19095;SDS011;9680;52.520;13.332;2022-12-18T05:09:04;63.40;;;15.17;;
19095;SDS011;9680;52.520;13.332;2022-12-18T05:11:31;59.97;;;13.77;;
19095;SDS011;9680;52.520;13.332;2022-12-18T05:13:58;63.90;;;13.87;;
19095;SDS011;9680;52.520;13.332;2022-12-18T05:16:25;57.27;;;13.87;;
19095;SDS011;9680;52.520;13.332;2022-12-18T05:18:51;63.03;;;13.13;;
19095;SDS011;9680;52.520;13.332;2022-12-18T05:21:18;64.33;;;14.43;;
19095;SDS011;9680;52.520;13.332;2022-12-18T05:23:46;55.60;;;13.03;;
19095;SDS011;9680;52.520;13.332;2022-12-18T05:26:14;57.87;;;13.10;;
19095;SDS011;9680;52.520;13.332;2022-12-18T05:28:43;50.37;;;12.67;;
19095;SDS011;9680;52.520;13.332;2022-12-18T05:31:10;61.40;;;13.80;;
19095;SDS011;9680;52.520;13.332;2022-12-18T05:33:37;64.63;;;14.77;;
19095;SDS011;9680;52.520;13.332;2022-12-18T05:36:05;60.50;;;13.70;;
19095;SDS011;9680;52.520;13.332;2022-12-18T05:38:36;50.73;;;12.20;;
19095;SDS011;9680;52.520;13.332;2022-12-18T05:41:06;51.17;;;12.20;;
19095;SDS011;9680;52.520;13.332;2022-12-18T05:43:33;59.37;;;13.13;;
19095;SDS011;9680;52.520;13.332;2022-12-18T05:46:03;55.13;;;11.83;;
19095;SDS011;9680;52.520;13.332;2022-12-18T05:48:31;50.50;;;12.87;;
19095;SDS011;9680;52.520;13.332;2022-12-18T05:51:02;50.00;;;12.67;;
19095;SDS011;9680;52.520;13.332;2022-12-18T05:53:30;56.93;;;13.20;;
19095;SDS011;9680;52.520;13.332;2022-12-18T05:55:59;64.13;;;13.60;;
19095;SDS011;9680;52.520;13.332;2022-12-18T05:58:28;63.07;;;15.43;;
19095;SDS011;9680;52.520;13.332;2022-12-18T06:01:05;59.53;;;14.07;;
19095;SDS011;9680;52.520;13.332;2022-12-18T06:03:35;59.80;;;13.50;;
19095;SDS011;9680;52.520;13.332;2022-12-18T06:06:02;57.47;;;13.63;;
19095;SDS011;9680;52.520;13.332;2022-12-18T06:08:29;57.23;;;13.73;;
19095;SDS011;9680;52.520;13.332;2022-12-18T06:10:55;54.93;;;12.77;;
19095;SDS011;9680;52.520;13.332;2022-12-18T06:13:22;55.87;;;13.03;;
19095;SDS011;9680;52.520;13.332;2022-12-18T06:15:51;61.10;;;13.93;;
19095;SDS011;9680;52.520;13.332;2022-12-18T06:18:17;63.27;;;14.10;;
19095;SDS011;9680;52.520;13.332;2022-12-18T06:20:44;62.50;;;14.50;;
19095;SDS011;9680;52.520;13.332;2022-12-18T06:23:11;69.90;;;14.90;;
19095;SDS011;9680;52.520;13.332;2022-12-18T06:25:38;57.53;;;14.00;;
19095;SDS011;9680;52.520;13.332;2022-12-18T06:28:05;63.67;;;14.83;;
19095;SDS011;9680;52.520;13.332;2022-12-18T06:30:32;74.47;;;15.20;;
19095;SDS011;9680;52.520;13.332;2022-12-18T06:33:00;53.37;;;13.77;;
19095;SDS011;9680;52.520;13.332;2022-12-18T06:35:27;57.13;;;13.57;;
19095;SDS011;9680;52.520;13.332;2022-12-18T06:37:54;57.43;;;13.60;;
19095;SDS011;9680;52.520;13.332;2022-12-18T06:40:21;55.50;;;12.87;;
19095;SDS011;9680;52.520;13.332;2022-12-18T06:42:48;63.43;;;14.93;;
19095;SDS011;9680;52.520;13.332;2022-12-18T06:45:15;64.03;;;15.33;;
19095;SDS011;9680;52.520;13.332;2022-12-18T06:47:42;56.93;;;14.17;;
19095;SDS011;9680;52.520;13.332;2022-12-18T06:50:14;58.37;;;14.37;;
19095;SDS011;9680;52.520;13.332;2022-12-18T06:52:42;60.10;;;14.23;;
19095;SDS011;9680;52.520;13.332;2022-12-18T06:55:11;53.33;;;13.00;;
19095;SDS011;9680;52.520;13.332;2022-12-18T06:57:38;57.27;;;14.03;;
19095;SDS011;9680;52.520;13.332;2022-12-18T07:00:05;60.67;;;13.40;;
19095;SDS011;9680;52.520;13.332;2022-12-18T07:02:33;61.57;;;15.07;;
19095;SDS011;9680;52.520;13.332;2022-12-18T07:05:00;57.43;;;13.97;;
19095;SDS011;9680;52.520;13.332;2022-12-18T07:07:28;65.17;;;15.07;;
19095;SDS011;9680;52.520;13.332;2022-12-18T07:09:55;57.63;;;14.60;;
19095;SDS011;9680;52.520;13.332;2022-12-18T07:12:22;60.30;;;14.10;;
19095;SDS011;9680;52.520;13.332;2022-12-18T07:14:49;58.77;;;13.40;;
19095;SDS011;9680;52.520;13.332;2022-12-18T07:17:16;59.70;;;13.00;;
19095;SDS011;9680;52.520;13.332;2022-12-18T07:19:42;60.23;;;12.87;;
19095;SDS011;9680;52.520;13.332;2022-12-18T07:22:09;55.70;;;13.80;;
19095;SDS011;9680;52.520;13.332;2022-12-18T07:24:37;59.13;;;13.63;;
19095;SDS011;9680;52.520;13.332;2022-12-18T07:27:04;57.83;;;13.80;;
19095;SDS011;9680;52.520;13.332;2022-12-18T07:29:31;66.00;;;14.03;;
19095;SDS011;9680;52.520;13.332;2022-12-18T07:31:58;51.40;;;12.33;;
19095;SDS011;9680;52.520;13.332;2022-12-18T07:34:24;45.33;;;12.43;;
19095;SDS011;9680;52.520;13.332;2022-12-18T07:36:51;53.13;;;12.50;;
19095;SDS011;9680;52.520;13.332;2022-12-18T07:39:18;44.73;;;12.40;;
19095;SDS011;9680;52.520;13.332;2022-12-18T07:41:46;44.60;;;12.40;;
19095;SDS011;9680;52.520;13.332;2022-12-18T07:44:33;46.13;;;12.17;;
19095;SDS011;9680;52.520;13.332;2022-12-18T07:46:59;38.67;;;9.27;;
19095;SDS011;9680;52.520;13.332;2022-12-18T07:49:27;43.43;;;10.43;;
19095;SDS011;9680;52.520;13.332;2022-12-18T07:51:53;40.37;;;11.00;;
19095;SDS011;9680;52.520;13.332;2022-12-18T07:54:21;39.97;;;10.73;;
19095;SDS011;9680;52.520;13.332;2022-12-18T07:56:49;44.47;;;11.20;;
19095;SDS011;9680;52.520;13.332;2022-12-18T07:59:16;41.20;;;10.30;;
19095;SDS011;9680;52.520;13.332;2022-12-18T08:01:43;46.80;;;9.37;;
19095;SDS011;9680;52.520;13.332;2022-12-18T08:04:10;44.13;;;11.30;;
19095;SDS011;9680;52.520;13.332;2022-12-18T08:06:36;47.70;;;10.10;;
19095;SDS011;9680;52.520;13.332;2022-12-18T08:09:03;52.33;;;11.43;;
19095;SDS011;9680;52.520;13.332;2022-12-18T08:11:30;41.20;;;11.10;;
19095;SDS011;9680;52.520;13.332;2022-12-18T08:13:59;52.00;;;12.23;;
19095;SDS011;9680;52.520;13.332;2022-12-18T08:16:25;40.93;;;10.90;;
19095;SDS011;9680;52.520;13.332;2022-12-18T08:18:54;39.07;;;10.80;;
19095;SDS011;9680;52.520;13.332;2022-12-18T08:21:22;43.30;;;11.37;;
19095;SDS011;9680;52.520;13.332;2022-12-18T08:23:50;49.13;;;12.00;;
19095;SDS011;9680;52.520;13.332;2022-12-18T08:26:18;43.27;;;10.93;;
19095;SDS011;9680;52.520;13.332;2022-12-18T08:28:48;43.50;;;10.77;;
19095;SDS011;9680;52.520;13.332;2022-12-18T08:31:20;38.93;;;10.10;;
19095;SDS011;9680;52.520;13.332;2022-12-18T08:33:48;43.60;;;11.43;;
19095;SDS011;9680;52.520;13.332;2022-12-18T08:36:16;47.97;;;11.80;;
19095;SDS011;9680;52.520;13.332;2022-12-18T08:38:43;45.43;;;11.03;;
19095;SDS011;9680;52.520;13.332;2022-12-18T08:41:11;45.73;;;11.20;;
19095;SDS011;9680;52.520;13.332;2022-12-18T08:43:39;48.43;;;11.67;;
19095;SDS011;9680;52.520;13.332;2022-12-18T08:46:26;42.80;;;10.43;;
19095;SDS011;9680;52.520;13.332;2022-12-18T08:48:54;36.50;;;9.80;;
19095;SDS011;9680;52.520;13.332;2022-12-18T08:51:21;43.10;;;10.87;;
19095;SDS011;9680;52.520;13.332;2022-12-18T08:53:48;42.93;;;11.00;;
19095;SDS011;9680;52.520;13.332;2022-12-18T08:56:15;39.70;;;10.87;;
19095;SDS011;9680;52.520;13.332;2022-12-18T08:58:42;41.47;;;10.67;;
19095;SDS011;9680;52.520;13.332;2022-12-18T09:01:10;40.93;;;10.97;;
19095;SDS011;9680;52.520;13.332;2022-12-18T09:03:42;45.17;;;10.97;;
19095;SDS011;9680;52.520;13.332;2022-12-18T09:06:16;38.03;;;10.10;;
19095;SDS011;9680;52.520;13.332;2022-12-18T09:08:45;43.43;;;11.07;;
19095;SDS011;9680;52.520;13.332;2022-12-18T09:11:15;40.73;;;9.90;;
19095;SDS011;9680;52.520;13.332;2022-12-18T09:13:50;37.53;;;10.37;;
19095;SDS011;9680;52.520;13.332;2022-12-18T09:16:17;41.60;;;11.13;;
19095;SDS011;9680;52.520;13.332;2022-12-18T09:18:46;40.80;;;11.23;;
19095;SDS011;9680;52.520;13.332;2022-12-18T09:21:16;40.93;;;11.13;;
19095;SDS011;9680;52.520;13.332;2022-12-18T09:23:48;39.80;;;10.47;;
19095;SDS011;9680;52.520;13.332;2022-12-18T09:26:15;37.07;;;9.97;;
19095;SDS011;9680;52.520;13.332;2022-12-18T09:28:43;32.37;;;10.20;;
19095;SDS011;9680;52.520;13.332;2022-12-18T09:31:10;38.03;;;10.60;;
19095;SDS011;9680;52.520;13.332;2022-12-18T09:33:38;42.13;;;10.10;;
19095;SDS011;9680;52.520;13.332;2022-12-18T09:36:08;39.00;;;9.80;;
19095;SDS011;9680;52.520;13.332;2022-12-18T09:38:37;37.47;;;9.90;;
19095;SDS011;9680;52.520;13.332;2022-12-18T09:41:05;39.43;;;10.20;;
19095;SDS011;9680;52.520;13.332;2022-12-18T09:43:44;40.90;;;10.60;;
19095;SDS011;9680;52.520;13.332;2022-12-18T09:46:17;32.03;;;9.53;;
19095;SDS011;9680;52.520;13.332;2022-12-18T09:48:50;30.07;;;8.60;;
19095;SDS011;9680;52.520;13.332;2022-12-18T09:51:23;36.17;;;9.43;;
19095;SDS011;9680;52.520;13.332;2022-12-18T09:53:55;32.27;;;10.03;;
19095;SDS011;9680;52.520;13.332;2022-12-18T09:56:26;41.43;;;10.53;;
19095;SDS011;9680;52.520;13.332;2022-12-18T09:58:57;36.10;;;9.73;;
19095;SDS011;9680;52.520;13.332;2022-12-18T10:01:26;40.97;;;11.07;;
19095;SDS011;9680;52.520;13.332;2022-12-18T10:03:55;34.83;;;10.57;;
19095;SDS011;9680;52.520;13.332;2022-12-18T10:06:32;30.87;;;9.00;;
19095;SDS011;9680;52.520;13.332;2022-12-18T10:09:13;34.47;;;9.00;;
19095;SDS011;9680;52.520;13.332;2022-12-18T10:11:48;43.83;;;10.53;;
19095;SDS011;9680;52.520;13.332;2022-12-18T10:14:22;41.33;;;10.93;;
19095;SDS011;9680;52.520;13.332;2022-12-18T10:16:57;39.90;;;10.03;;
19095;SDS011;9680;52.520;13.332;2022-12-18T10:19:36;37.60;;;10.53;;
19095;SDS011;9680;52.520;13.332;2022-12-18T10:22:18;39.77;;;10.13;;
19095;SDS011;9680;52.520;13.332;2022-12-18T10:24:59;33.13;;;9.83;;
19095;SDS011;9680;52.520;13.332;2022-12-18T10:27:29;39.23;;;10.60;;
19095;SDS011;9680;52.520;13.332;2022-12-18T10:29:57;30.53;;;9.40;;
19095;SDS011;9680;52.520;13.332;2022-12-18T10:32:26;41.60;;;10.37;;
19095;SDS011;9680;52.520;13.332;2022-12-18T10:34:55;39.13;;;11.30;;
19095;SDS011;9680;52.520;13.332;2022-12-18T10:37:26;41.53;;;11.13;;
19095;SDS011;9680;52.520;13.332;2022-12-18T10:40:07;42.27;;;10.93;;
19095;SDS011;9680;52.520;13.332;2022-12-18T10:42:36;39.43;;;11.03;;
19095;SDS011;9680;52.520;13.332;2022-12-18T10:45:11;38.43;;;10.47;;
19095;SDS011;9680;52.520;13.332;2022-12-18T10:47:43;43.27;;;11.43;;
19095;SDS011;9680;52.520;13.332;2022-12-18T10:50:18;44.20;;;11.17;;
19095;SDS011;9680;52.520;13.332;2022-12-18T10:52:55;39.60;;;11.03;;
19095;SDS011;9680;52.520;13.332;2022-12-18T10:55:24;38.47;;;11.37;;
19095;SDS011;9680;52.520;13.332;2022-12-18T10:58:01;39.30;;;11.47;;
19095;SDS011;9680;52.520;13.332;2022-12-18T11:00:42;38.00;;;10.43;;
19095;SDS011;9680;52.520;13.332;2022-12-18T11:03:28;38.43;;;10.57;;
19095;SDS011;9680;52.520;13.332;2022-12-18T11:06:04;45.20;;;11.83;;
19095;SDS011;9680;52.520;13.332;2022-12-18T11:08:37;40.43;;;11.53;;
19095;SDS011;9680;52.520;13.332;2022-12-18T11:11:06;41.10;;;11.07;;
19095;SDS011;9680;52.520;13.332;2022-12-18T11:13:42;40.60;;;11.70;;
19095;SDS011;9680;52.520;13.332;2022-12-18T11:16:24;36.60;;;10.87;;
19095;SDS011;9680;52.520;13.332;2022-12-18T11:18:51;41.43;;;11.13;;
19095;SDS011;9680;52.520;13.332;2022-12-18T11:21:18;46.63;;;11.57;;
19095;SDS011;9680;52.520;13.332;2022-12-18T11:23:49;44.53;;;11.70;;
19095;SDS011;9680;52.520;13.332;2022-12-18T11:26:19;45.77;;;11.37;;
19095;SDS011;9680;52.520;13.332;2022-12-18T11:28:49;40.80;;;12.03;;
19095;SDS011;9680;52.520;13.332;2022-12-18T11:32:26;45.67;;;11.30;;
19095;SDS011;9680;52.520;13.332;2022-12-18T11:34:48;47.00;;;10.90;;
19095;SDS011;9680;52.520;13.332;2022-12-18T11:37:19;40.60;;;10.23;;
19095;SDS011;9680;52.520;13.332;2022-12-18T11:39:49;41.50;;;10.63;;
19095;SDS011;9680;52.520;13.332;2022-12-18T11:42:22;40.20;;;9.97;;
19095;SDS011;9680;52.520;13.332;2022-12-18T11:44:54;37.43;;;10.13;;
19095;SDS011;9680;52.520;13.332;2022-12-18T11:47:25;38.53;;;10.93;;
19095;SDS011;9680;52.520;13.332;2022-12-18T11:49:59;37.63;;;9.73;;
19095;SDS011;9680;52.520;13.332;2022-12-18T11:52:28;35.70;;;10.07;;
19095;SDS011;9680;52.520;13.332;2022-12-18T11:55:09;38.73;;;11.17;;
19095;SDS011;9680;52.520;13.332;2022-12-18T11:57:42;33.23;;;9.27;;
19095;SDS011;9680;52.520;13.332;2022-12-18T12:00:18;31.70;;;8.70;;
19095;SDS011;9680;52.520;13.332;2022-12-18T12:02:56;34.87;;;10.43;;
19095;SDS011;9680;52.520;13.332;2022-12-18T12:05:58;38.13;;;9.80;;
19095;SDS011;9680;52.520;13.332;2022-12-18T12:15:58;31.57;;;9.33;;
19095;SDS011;9680;52.520;13.332;2022-12-18T12:18:35;38.37;;;10.30;;
19095;SDS011;9680;52.520;13.332;2022-12-18T12:21:11;32.60;;;9.70;;
19095;SDS011;9680;52.520;13.332;2022-12-18T12:23:44;39.57;;;10.87;;
19095;SDS011;9680;52.520;13.332;2022-12-18T12:26:21;34.13;;;9.47;;
19095;SDS011;9680;52.520;13.332;2022-12-18T12:29:04;37.70;;;11.03;;
19095;SDS011;9680;52.520;13.332;2022-12-18T12:32:01;32.90;;;9.97;;
19095;SDS011;9680;52.520;13.332;2022-12-18T12:34:51;31.43;;;9.07;;
19095;SDS011;9680;52.520;13.332;2022-12-18T12:48:54;33.73;;;10.10;;
19095;SDS011;9680;52.520;13.332;2022-12-18T12:51:23;38.13;;;10.67;;
19095;SDS011;9680;52.520;13.332;2022-12-18T12:53:52;33.63;;;10.60;;
19095;SDS011;9680;52.520;13.332;2022-12-18T12:56:32;35.63;;;10.40;;
19095;SDS011;9680;52.520;13.332;2022-12-18T12:59:10;30.80;;;10.00;;
19095;SDS011;9680;52.520;13.332;2022-12-18T13:01:47;32.40;;;9.90;;
19095;SDS011;9680;52.520;13.332;2022-12-18T13:04:23;32.23;;;10.30;;
19095;SDS011;9680;52.520;13.332;2022-12-18T13:06:58;32.50;;;10.00;;
19095;SDS011;9680;52.520;13.332;2022-12-18T13:09:32;34.73;;;10.83;;
19095;SDS011;9680;52.520;13.332;2022-12-18T13:12:02;35.23;;;11.07;;
19095;SDS011;9680;52.520;13.332;2022-12-18T13:14:49;34.50;;;10.87;;
19095;SDS011;9680;52.520;13.332;2022-12-18T13:20:09;32.17;;;9.73;;
19095;SDS011;9680;52.520;13.332;2022-12-18T13:22:39;33.60;;;10.40;;
19095;SDS011;9680;52.520;13.332;2022-12-18T13:25:31;34.23;;;10.70;;
19095;SDS011;9680;52.520;13.332;2022-12-18T13:28:01;37.83;;;11.27;;
19095;SDS011;9680;52.520;13.332;2022-12-18T13:30:44;35.70;;;10.90;;
19095;SDS011;9680;52.520;13.332;2022-12-18T13:36:25;34.67;;;10.93;;
19095;SDS011;9680;52.520;13.332;2022-12-18T13:39:10;34.57;;;10.83;;
19095;SDS011;9680;52.520;13.332;2022-12-18T13:45:35;31.70;;;10.97;;
19095;SDS011;9680;52.520;13.332;2022-12-18T13:48:05;31.33;;;10.77;;
19095;SDS011;9680;52.520;13.332;2022-12-18T13:50:42;33.00;;;10.80;;
19095;SDS011;9680;52.520;13.332;2022-12-18T13:53:15;30.40;;;9.80;;
19095;SDS011;9680;52.520;13.332;2022-12-18T13:55:47;32.43;;;10.77;;
19095;SDS011;9680;52.520;13.332;2022-12-18T13:58:16;33.40;;;10.50;;
19095;SDS011;9680;52.520;13.332;2022-12-18T14:00:43;35.47;;;11.13;;
19095;SDS011;9680;52.520;13.332;2022-12-18T14:03:18;31.40;;;9.47;;
19095;SDS011;9680;52.520;13.332;2022-12-18T14:05:46;33.43;;;10.27;;
19095;SDS011;9680;52.520;13.332;2022-12-18T14:08:24;35.90;;;11.23;;
19095;SDS011;9680;52.520;13.332;2022-12-18T14:10:56;35.53;;;11.20;;
19095;SDS011;9680;52.520;13.332;2022-12-18T14:13:24;37.50;;;11.27;;
19095;SDS011;9680;52.520;13.332;2022-12-18T14:15:54;42.10;;;12.23;;
19095;SDS011;9680;52.520;13.332;2022-12-18T14:18:23;37.70;;;11.50;;
19095;SDS011;9680;52.520;13.332;2022-12-18T14:20:52;41.07;;;12.53;;
19095;SDS011;9680;52.520;13.332;2022-12-18T14:23:27;35.33;;;12.47;;
19095;SDS011;9680;52.520;13.332;2022-12-18T14:25:55;36.53;;;12.57;;
19095;SDS011;9680;52.520;13.332;2022-12-18T14:28:23;48.53;;;13.87;;
19095;SDS011;9680;52.520;13.332;2022-12-18T14:30:51;39.10;;;12.77;;
19095;SDS011;9680;52.520;13.332;2022-12-18T14:33:20;42.40;;;13.67;;
19095;SDS011;9680;52.520;13.332;2022-12-18T14:35:53;49.90;;;13.73;;
19095;SDS011;9680;52.520;13.332;2022-12-18T14:38:28;40.57;;;12.43;;
19095;SDS011;9680;52.520;13.332;2022-12-18T14:40:58;44.10;;;13.77;;
19095;SDS011;9680;52.520;13.332;2022-12-18T14:43:27;45.73;;;13.50;;
19095;SDS011;9680;52.520;13.332;2022-12-18T14:45:55;38.20;;;12.10;;
19095;SDS011;9680;52.520;13.332;2022-12-18T14:48:25;43.57;;;12.73;;
19095;SDS011;9680;52.520;13.332;2022-12-18T14:51:01;39.63;;;13.03;;
19095;SDS011;9680;52.520;13.332;2022-12-18T14:53:35;39.97;;;12.13;;
19095;SDS011;9680;52.520;13.332;2022-12-18T14:56:10;45.43;;;13.20;;
19095;SDS011;9680;52.520;13.332;2022-12-18T14:58:46;35.40;;;11.87;;
19095;SDS011;9680;52.520;13.332;2022-12-18T15:01:18;40.33;;;12.90;;
19095;SDS011;9680;52.520;13.332;2022-12-18T15:03:46;39.20;;;12.50;;
19095;SDS011;9680;52.520;13.332;2022-12-18T15:06:17;40.40;;;11.37;;
19095;SDS011;9680;52.520;13.332;2022-12-18T15:08:51;31.00;;;10.73;;
19095;SDS011;9680;52.520;13.332;2022-12-18T15:11:30;35.43;;;11.97;;
19095;SDS011;9680;52.520;13.332;2022-12-18T15:14:22;33.60;;;10.40;;
19095;SDS011;9680;52.520;13.332;2022-12-18T15:16:57;35.07;;;12.47;;
19095;SDS011;9680;52.520;13.332;2022-12-18T15:19:31;36.17;;;12.33;;